Time;durP1;ratioP1;P1;durP2;ratioP2;P2;SDS_P1;SDS_P2;PMS_P1;PMS_P2;Temp;Humidity;BMP_temperature;BMP_pressure;BME280_temperature;BME280_humidity;BME280_pressure;Samples;Min_cycle;Max_cycle;Signal;HPM_P1;HPM_P2
2023/08/25 00:02:19;;;;;;;14.60;13.10;;;;;;;23.94;100.00;100515.03;5092166;28;20038;-74
2023/08/25 00:04:46;;;;;;;14.52;13.07;;;;;;;23.98;100.00;100488.72;5092335;28;20088;-74
2023/08/25 00:07:11;;;;;;;17.63;13.43;;;;;;;23.40;100.00;100475.78;5092291;28;20038;-77
2023/08/25 00:09:36;;;;;;;14.38;13.02;;;;;;;23.80;100.00;100478.88;5091347;28;20031;-74
2023/08/25 00:12:03;;;;;;;17.02;13.27;;;;;;;23.93;100.00;100524.59;5092440;28;20470;-75
2023/08/25 00:14:28;;;;;;;14.88;13.60;;;;;;;24.21;100.00;100514.75;5092405;28;20051;-74
2023/08/25 00:16:54;;;;;;;14.57;13.13;;;;;;;23.90;100.00;100542.19;5092408;28;20502;-75
2023/08/25 00:19:20;;;;;;;15.57;13.65;;;;;;;23.25;100.00;100505.41;5092739;28;20047;-75
2023/08/25 00:21:45;;;;;;;15.38;13.88;;;;;;;24.07;100.00;100545.22;5092580;28;20470;-75
2023/08/25 00:24:11;;;;;;;14.35;13.00;;;;;;;24.16;100.00;100540.28;5092458;28;20035;-74
2023/08/25 00:26:39;;;;;;;15.95;14.55;;;;;;;23.39;100.00;100478.50;5107877;28;20032;-74
2023/08/25 00:29:06;;;;;;;15.60;13.82;;;;;;;23.65;100.00;100524.16;5092266;28;20047;-75
2023/08/25 00:31:31;;;;;;;15.98;14.48;;;;;;;23.16;100.00;100451.56;5090928;28;20106;-76
2023/08/25 00:33:58;;;;;;;15.57;13.90;;;;;;;23.21;100.00;100493.59;5090853;28;20058;-75
2023/08/25 00:36:24;;;;;;;15.70;14.02;;;;;;;23.23;100.00;100512.50;5092349;28;20027;-75
2023/08/25 00:38:51;;;;;;;15.95;14.23;;;;;;;23.58;100.00;100510.78;5092170;28;20031;-75
2023/08/25 00:41:17;;;;;;;15.95;13.95;;;;;;;23.57;100.00;100537.69;5091598;28;20077;-75
2023/08/25 00:43:42;;;;;;;15.32;13.82;;;;;;;23.22;100.00;100552.34;5092255;28;20028;-74
2023/08/25 00:46:08;;;;;;;14.95;13.50;;;;;;;23.70;100.00;100590.41;5098247;28;20020;-76
2023/08/25 00:48:34;;;;;;;15.10;13.70;;;;;;;23.50;100.00;100552.06;5125829;28;20051;-74
2023/08/25 00:50:59;;;;;;;14.50;13.20;;;;;;;23.97;100.00;100619.56;5095513;28;20119;-76
2023/08/25 00:53:25;;;;;;;14.25;12.80;;;;;;;24.05;100.00;100621.63;5094277;28;20035;-75
2023/08/25 00:55:53;;;;;;;14.48;12.65;;;;;;;23.75;100.00;100585.69;5112117;28;20130;-75
2023/08/25 00:58:19;;;;;;;13.93;12.63;;;;;;;23.77;100.00;100588.22;5112093;28;20028;-75
2023/08/25 01:00:45;;;;;;;14.25;12.85;;;;;;;23.95;100.00;100642.22;5111837;28;20027;-75
2023/08/25 01:03:11;;;;;;;15.05;13.57;;;;;;;23.61;100.00;100598.84;5112012;28;20030;-75
2023/08/25 01:05:39;;;;;;;14.57;13.10;;;;;;;23.84;100.00;100665.56;5111480;28;20107;-74
2023/08/25 01:08:05;;;;;;;15.88;12.70;;;;;;;23.85;100.00;100667.22;5110762;28;20114;-74
2023/08/25 01:10:50;;;;;;;13.30;12.10;;;;;;;24.13;100.00;100679.06;5111711;28;20032;-75
2023/08/25 01:13:24;;;;;;;13.23;12.02;;;;;;;24.11;100.00;100641.16;5106193;28;20164;-75
2023/08/25 01:15:53;;;;;;;13.15;11.88;;;;;;;23.82;100.00;100646.66;5090227;28;20024;-73
2023/08/25 01:18:25;;;;;;;13.02;11.70;;;;;;;24.19;100.00;100681.22;5110814;27;20026;-72
2023/08/25 01:20:52;;;;;;;13.90;12.27;;;;;;;23.55;100.00;100635.63;5152754;27;20031;-74
2023/08/25 01:23:51;;;;;;;13.05;11.70;;;;;;;24.00;100.00;100676.53;5134851;27;20056;-75
2023/08/25 01:26:17;;;;;;;12.68;11.40;;;;;;;23.57;100.00;100610.38;5134814;27;20027;-76
2023/08/25 01:28:42;;;;;;;15.00;13.70;;;;;;;23.34;100.00;100612.97;5134204;27;20038;-75
2023/08/25 01:31:09;;;;;;;16.42;14.80;;;;;;;23.29;100.00;100672.97;5153078;27;20031;-76
2023/08/25 01:33:35;;;;;;;16.33;14.55;;;;;;;23.04;100.00;100665.19;5153062;27;20018;-75
2023/08/25 01:36:20;;;;;;;15.63;14.02;;;;;;;23.27;100.00;100724.97;5153058;27;20465;-75
2023/08/25 01:38:56;;;;;;;16.20;14.77;;;;;;;23.29;100.00;100735.28;5152966;27;20031;-75
2023/08/25 01:41:44;;;;;;;16.13;14.63;;;;;;;23.41;100.00;100739.66;5152858;27;20513;-73
2023/08/25 01:44:13;;;;;;;16.50;14.85;;;;;;;23.42;100.00;100749.09;5152492;27;20492;-74
2023/08/25 01:46:43;;;;;;;17.50;15.75;;;;;;;23.35;100.00;100763.44;5152884;27;20075;-74
2023/08/25 01:49:09;;;;;;;16.10;14.52;;;;;;;23.22;100.00;100767.75;5153214;27;20022;-75
2023/08/25 01:51:34;;;;;;;16.50;14.85;;;;;;;23.32;100.00;100755.84;5154141;27;20027;-76
2023/08/25 01:54:00;;;;;;;16.70;15.15;;;;;;;23.28;100.00;100769.94;5135016;27;20027;-76
2023/08/25 01:56:25;;;;;;;17.35;14.95;;;;;;;23.34;100.00;100779.09;5152852;27;20031;-76
2023/08/25 01:58:51;;;;;;;16.27;14.65;;;;;;;22.65;100.00;100724.94;5153162;27;20453;-75
2023/08/25 02:01:16;;;;;;;15.77;14.35;;;;;;;22.80;100.00;100737.72;5153066;27;20449;-75
2023/08/25 02:03:42;;;;;;;16.52;14.57;;;;;;;23.01;100.00;100756.22;5138219;27;20179;-76
2023/08/25 02:06:10;;;;;;;15.93;14.38;;;;;;;23.32;100.00;100814.69;5138616;27;20027;-75
2023/08/25 02:08:36;;;;;;;15.63;14.13;;;;;;;23.01;100.00;100776.97;5156320;27;20030;-75
2023/08/25 02:11:03;;;;;;;16.23;14.65;;;;;;;23.16;100.00;100805.31;5156366;27;20140;-75
2023/08/25 02:13:29;;;;;;;17.08;15.35;;;;;;;23.01;100.00;100840.09;5156666;27;20066;-76
2023/08/25 02:15:55;;;;;;;16.75;15.10;;;;;;;23.37;100.00;100861.97;5156844;27;20477;-75
2023/08/25 02:18:20;;;;;;;15.95;14.35;;;;;;;23.35;100.00;100874.22;5156805;27;20031;-75
2023/08/25 02:20:46;;;;;;;16.65;15.05;;;;;;;23.28;100.00;100847.78;5137774;27;20033;-74
2023/08/25 02:23:11;;;;;;;16.00;14.50;;;;;;;23.32;100.00;100859.66;5156714;27;20083;-75
2023/08/25 02:25:36;;;;;;;16.65;14.77;;;;;;;23.32;100.00;100854.47;5156080;27;20118;-76
2023/08/25 02:28:02;;;;;;;17.77;15.40;;;;;;;23.19;100.00;100788.72;5156069;27;20516;-78
2023/08/25 02:30:28;;;;;;;16.58;15.05;;;;;;;23.53;100.00;100850.44;5156520;27;20110;-79
2023/08/25 02:32:55;;;;;;;17.17;15.48;;;;;;;23.20;100.00;100852.66;5144945;27;20053;-77
2023/08/25 02:35:21;;;;;;;17.38;15.57;;;;;;;23.13;100.00;100844.47;5104343;28;20130;-74
2023/08/25 02:38:18;;;;;;;17.85;15.38;;;;;;;23.30;100.00;100851.13;5116499;27;20089;-75
2023/08/25 02:40:45;;;;;;;19.17;15.60;;;;;;;22.57;100.00;100753.97;5061657;27;20058;-76
2023/08/25 02:43:10;;;;;;;17.98;15.93;;;;;;;23.11;100.00;100837.72;5117082;27;20485;-76
2023/08/25 02:45:36;;;;;;;22.80;15.52;;;;;;;22.97;100.00;100785.91;5135145;27;20031;-77
2023/08/25 02:48:03;;;;;;;17.25;15.43;;;;;;;23.43;100.00;100835.59;5117006;27;20088;-76
2023/08/25 02:50:28;;;;;;;17.92;16.02;;;;;;;23.27;100.00;100846.97;5135702;27;20048;-76
2023/08/25 02:52:54;;;;;;;17.75;15.93;;;;;;;23.11;100.00;100771.09;5117507;27;20027;-77
2023/08/25 02:55:22;;;;;;;21.65;15.88;;;;;;;23.21;100.00;100846.56;5135464;27;20038;-76
2023/08/25 02:57:49;;;;;;;22.45;16.77;;;;;;;23.20;100.00;100853.50;5135119;27;20033;-77
2023/08/25 03:00:20;;;;;;;17.90;15.75;;;;;;;23.17;100.00;100863.25;5134714;27;20027;-75
2023/08/25 03:02:46;;;;;;;19.63;15.75;;;;;;;22.43;100.00;100775.56;5135091;27;20024;-78
2023/08/25 03:05:12;;;;;;;17.05;15.25;;;;;;;23.03;100.00;100895.31;5116964;27;20100;-75
2023/08/25 03:07:37;;;;;;;17.27;15.48;;;;;;;23.05;100.00;100895.19;5134447;27;20103;-79
2023/08/25 03:10:03;;;;;;;16.88;15.25;;;;;;;22.96;100.00;100906.16;5134804;27;20035;-75
2023/08/25 03:12:28;;;;;;;16.90;15.10;;;;;;;22.86;100.00;100907.66;5116736;27;20058;-76
2023/08/25 03:14:54;;;;;;;16.52;14.82;;;;;;;23.01;100.00;100930.91;5134085;27;20053;-78
2023/08/25 03:17:21;;;;;;;16.08;14.57;;;;;;;23.34;100.00;100911.47;5151022;27;20035;-76
2023/08/25 03:19:47;;;;;;;15.60;13.95;;;;;;;23.18;100.00;100922.00;5102600;28;20406;-77
2023/08/25 03:22:13;;;;;;;16.65;14.98;;;;;;;23.01;100.00;100924.88;5128827;27;20026;-77
2023/08/25 03:24:38;;;;;;;16.25;14.30;;;;;;;23.11;100.00;100918.16;5145502;27;20032;-76
2023/08/25 03:27:04;;;;;;;16.42;14.73;;;;;;;22.99;100.00;100924.13;5099868;28;20028;-76
2023/08/25 03:29:31;;;;;;;16.30;14.70;;;;;;;22.52;100.00;100887.38;5112712;28;20168;-73
2023/08/25 03:32:01;;;;;;;17.80;14.82;;;;;;;22.48;100.00;100857.38;5126007;27;20027;-75
2023/08/25 03:34:26;;;;;;;16.10;14.27;;;;;;;23.23;100.00;100964.09;5116270;27;20144;-77
2023/08/25 03:36:52;;;;;;;15.93;13.68;;;;;;;23.18;100.00;100950.56;5099981;27;20515;-75
2023/08/25 03:39:18;;;;;;;17.15;14.20;;;;;;;22.85;100.00;100898.25;5098246;28;20111;-75
2023/08/25 03:41:44;;;;;;;15.50;14.00;;;;;;;22.88;100.00;100944.72;5124569;27;20031;-75
2023/08/25 03:44:10;;;;;;;14.93;13.32;;;;;;;22.73;100.00;100917.16;5123448;27;20037;-75
2023/08/25 03:46:36;;;;;;;15.07;13.43;;;;;;;23.28;100.00;100955.06;5148262;27;20035;-78
2023/08/25 03:49:02;;;;;;;15.32;13.73;;;;;;;22.77;100.00;100879.75;5133715;27;20027;-75
2023/08/25 03:51:27;;;;;;;14.50;13.10;;;;;;;23.14;100.00;100936.94;5110379;27;20031;-75
2023/08/25 03:53:53;;;;;;;15.85;14.23;;;;;;;23.10;100.00;100885.34;5125439;27;20034;-76
2023/08/25 03:56:18;;;;;;;18.00;13.85;;;;;;;23.34;100.00;100935.69;5134045;27;20034;-73
2023/08/25 03:58:43;;;;;;;16.60;14.77;;;;;;;23.28;100.00;100910.94;5133263;27;20039;-76
2023/08/25 04:01:09;;;;;;;16.48;13.90;;;;;;;23.07;100.00;100881.19;5133538;27;20027;-78
2023/08/25 04:03:34;;;;;;;14.88;13.38;;;;;;;23.69;100.00;100930.78;5133156;27;20031;-76
2023/08/25 04:06:00;;;;;;;14.20;12.73;;;;;;;23.81;100.00;100859.81;5136602;27;20080;-76
2023/08/25 04:08:25;;;;;;;17.10;13.63;;;;;;;23.48;100.00;100833.50;5135216;27;20023;-75
2023/08/25 04:10:52;;;;;;;15.45;13.40;;;;;;;23.34;100.00;100839.63;5133930;27;20471;-76
2023/08/25 04:13:17;;;;;;;17.95;13.82;;;;;;;23.56;100.00;100888.34;5150517;27;20035;-77
2023/08/25 04:15:43;;;;;;;18.95;13.80;;;;;;;23.63;100.00;100916.41;5143019;27;20027;-78
2023/08/25 04:18:08;;;;;;;16.38;14.07;;;;;;;23.49;100.00;100929.50;5133351;27;20031;-74
2023/08/25 04:20:34;;;;;;;20.80;14.65;;;;;;;23.52;100.00;100947.47;5132650;27;20042;-74
2023/08/25 04:23:01;;;;;;;19.67;16.42;;;;;;;23.67;100.00;100938.66;5133013;27;20050;-76
2023/08/25 04:25:29;;;;;;;22.67;16.35;;;;;;;23.37;100.00;100937.25;5132204;27;20518;-76
2023/08/25 04:27:54;;;;;;;18.42;15.82;;;;;;;23.13;100.00;100883.41;5112887;27;20015;-76
2023/08/25 04:30:22;;;;;;;23.30;16.05;;;;;;;23.10;100.00;100893.13;5112454;27;20046;-74
2023/08/25 04:32:49;;;;;;;24.10;16.10;;;;;;;23.33;100.00;100848.38;5116108;27;20023;-76
2023/08/25 04:35:15;;;;;;;21.35;16.20;;;;;;;23.37;100.00;100901.75;5105985;28;20063;-73
2023/08/25 04:37:44;;;;;;;23.23;16.88;;;;;;;23.07;100.00;100855.25;5146082;27;20041;-76
2023/08/25 04:40:10;;;;;;;25.02;17.50;;;;;;;23.33;100.00;100912.44;5150176;27;20022;-77
2023/08/25 04:42:35;;;;;;;20.38;17.50;;;;;;;23.01;100.00;100866.03;5153772;27;20041;-79
2023/08/25 04:45:03;;;;;;;23.00;17.60;;;;;;;23.37;100.00;100874.94;5153086;27;20026;-73
2023/08/25 04:47:28;;;;;;;23.10;18.35;;;;;;;23.14;100.00;100832.31;5153649;27;20046;-76
2023/08/25 04:49:57;;;;;;;20.05;17.45;;;;;;;23.35;100.00;100900.19;5153755;27;20035;-76
2023/08/25 04:52:23;;;;;;;19.05;16.90;;;;;;;23.35;100.00;100900.19;5153657;27;20019;-76
2023/08/25 04:54:48;;;;;;;22.15;17.25;;;;;;;23.47;100.00;100904.56;5152256;27;20033;-75
2023/08/25 04:57:13;;;;;;;22.40;16.50;;;;;;;23.65;100.00;100904.16;5151383;27;20029;-77
2023/08/25 04:59:39;;;;;;;20.17;17.35;;;;;;;23.46;100.00;100820.63;5153146;27;20038;-75
2023/08/25 05:02:04;;;;;;;21.27;17.50;;;;;;;23.55;100.00;100835.59;5153300;27;20415;-76
2023/08/25 05:04:30;;;;;;;18.40;16.52;;;;;;;24.15;100.00;100882.53;5152980;27;20038;-75
2023/08/25 05:06:55;;;;;;;19.27;16.52;;;;;;;24.39;100.00;100857.41;5152797;27;20027;-75
2023/08/25 05:09:20;;;;;;;19.25;15.18;;;;;;;24.46;100.00;100866.47;5133618;27;20034;-74
2023/08/25 05:11:46;;;;;;;18.70;15.88;;;;;;;24.69;100.00;100844.81;5152478;27;20507;-76
2023/08/25 05:14:12;;;;;;;18.98;15.85;;;;;;;25.01;100.00;100821.66;5152791;27;20507;-75
2023/08/25 05:16:37;;;;;;;17.27;15.23;;;;;;;25.08;100.00;100759.59;5133953;27;20027;-75
2023/08/25 05:19:02;;;;;;;16.92;15.20;;;;;;;25.51;100.00;100795.25;5152496;27;20022;-71
2023/08/25 05:21:28;;;;;;;19.20;14.82;;;;;;;25.16;100.00;100745.00;5153189;27;20026;-75
2023/08/25 05:24:23;;;;;;;18.80;15.38;;;;;;;25.63;100.00;100772.66;5134688;27;20031;-77
2023/08/25 05:26:53;;;;;;;16.85;15.00;;;;;;;25.85;100.00;100756.19;5134708;27;20103;-76
2023/08/25 05:29:23;;;;;;;20.20;14.18;;;;;;;25.84;100.00;100697.16;5153233;27;20473;-76
2023/08/25 05:31:48;;;;;;;19.42;14.93;;;;;;;26.38;100.00;100742.31;5153113;27;20030;-76
2023/08/25 05:34:15;;;;;;;16.05;14.30;;;;;;;26.35;100.00;100685.16;5152636;27;20066;-75
2023/08/25 05:36:40;;;;;;;15.50;13.85;;;;;;;26.79;100.00;100731.94;5153361;27;20023;-75
2023/08/25 05:39:06;;;;;;;15.82;14.23;;;;;;;26.68;100.00;100718.09;5157540;27;20034;-75
2023/08/25 05:41:32;;;;;;;16.08;14.57;;;;;;;26.90;100.00;100733.66;5157054;27;20058;-76
2023/08/25 05:43:58;;;;;;;26.90;18.27;;;;;;;27.12;100.00;100730.88;5157118;27;20397;-76
2023/08/25 05:46:24;;;;;;;20.70;18.10;;;;;;;26.97;100.00;100734.78;5138290;27;20117;-76
2023/08/25 05:48:49;;;;;;;25.67;19.48;;;;;;;26.94;100.00;100675.00;5156737;27;20138;-74
2023/08/25 05:51:15;;;;;;;19.88;17.00;;;;;;;27.10;100.00;100697.06;5156756;27;20022;-75
2023/08/25 05:53:40;;;;;;;23.25;15.65;;;;;;;27.42;100.00;100718.69;5156065;27;20421;-74
2023/08/25 05:56:06;;;;;;;17.40;15.18;;;;;;;27.07;100.00;100688.66;5156542;27;20027;-71
2023/08/25 05:58:31;;;;;;;17.10;13.68;;;;;;;26.87;100.00;100732.13;5156925;27;20035;-75
2023/08/25 06:00:56;;;;;;;15.25;13.02;;;;;;;27.66;100.00;100726.19;5156793;27;20023;-76
2023/08/25 06:03:22;;;;;;;16.92;13.32;;;;;;;28.10;100.00;100672.59;5156776;27;20121;-75
2023/08/25 06:05:51;;;;;;;19.83;13.98;;;;;;;27.66;100.00;100678.28;5156608;27;20011;-75
2023/08/25 06:08:16;;;;;;;19.45;13.70;;;;;;;27.83;100.00;100631.38;5156563;27;20033;-75
2023/08/25 06:10:42;;;;;;;18.50;13.75;;;;;;;27.93;100.00;100626.19;5156703;27;20026;-76
2023/08/25 06:13:07;;;;;;;16.48;13.73;;;;;;;28.05;100.00;100687.88;5156739;27;20502;-74
2023/08/25 06:15:32;;;;;;;20.17;13.68;;;;;;;28.26;100.00;100678.09;5138479;27;20041;-75
2023/08/25 06:17:58;;;;;;;21.45;14.00;;;;;;;28.64;100.00;100665.00;5156235;27;20054;-75
2023/08/25 06:20:23;;;;;;;15.55;12.63;;;;;;;28.25;100.00;100624.13;5156190;27;20114;-74
2023/08/25 06:22:49;;;;;;;15.48;12.63;;;;;;;28.87;100.00;100658.44;5155978;27;20035;-75
2023/08/25 06:25:14;;;;;;;13.57;11.93;;;;;;;28.57;100.00;100673.53;5156432;27;20117;-78
2023/08/25 06:27:40;;;;;;;15.90;12.00;;;;;;;28.46;100.00;100677.13;5156441;27;20496;-75
2023/08/25 06:30:06;;;;;;;12.55;11.00;;;;;;;28.75;100.00;100632.56;5137829;27;20443;-75
2023/08/25 06:32:31;;;;;;;12.88;11.68;;;;;;;28.83;100.00;100692.91;5155892;27;20548;-75
2023/08/25 06:34:57;;;;;;;13.32;12.02;;;;;;;28.90;100.00;100637.19;5156109;27;20029;-76
2023/08/25 06:37:22;;;;;;;16.33;11.70;;;;;;;29.32;100.00;100634.97;5156416;27;20114;-75
2023/08/25 06:39:48;;;;;;;16.70;11.95;;;;;;;29.78;100.00;100675.97;5156576;27;20071;-75
2023/08/25 06:42:13;;;;;;;12.48;11.27;;;;;;;29.59;100.00;100687.41;5156259;27;20044;-74
2023/08/25 06:44:40;;;;;;;13.73;11.50;;;;;;;29.37;100.00;100621.44;5156203;27;20034;-76
2023/08/25 06:47:05;;;;;;;13.35;12.05;;;;;;;29.69;100.00;100682.88;5156159;27;20103;-75
2023/08/25 06:49:31;;;;;;;13.45;11.20;;;;;;;29.25;100.00;100638.31;5154782;27;20031;-75
2023/08/25 06:51:56;;;;;;;12.52;11.40;;;;;;;29.51;100.00;100636.66;5155510;27;20039;-76
2023/08/25 06:54:24;;;;;;;12.43;11.02;;;;;;;29.75;100.00;100686.78;5156069;27;20027;-75
2023/08/25 06:56:50;;;;;;;12.10;11.00;;;;;;;29.90;100.00;100643.28;5155999;27;20102;-76
2023/08/25 06:59:16;;;;;;;12.30;11.00;;;;;;;30.22;100.00;100617.34;5155497;27;20027;-76
2023/08/25 07:01:41;;;;;;;16.40;11.88;;;;;;;30.18;100.00;100652.72;5137409;27;20079;-74
2023/08/25 07:04:06;;;;;;;15.75;11.23;;;;;;;30.27;100.00;100675.44;5155362;27;20022;-76
2023/08/25 07:06:32;;;;;;;13.98;11.93;;;;;;;30.31;100.00;100692.56;5155662;27;20543;-77
2023/08/25 07:08:57;;;;;;;12.30;10.60;;;;;;;30.48;100.00;100618.22;5116042;27;20031;-74
2023/08/25 07:11:26;;;;;;;12.23;10.77;;;;;;;30.68;100.00;100673.97;5114246;28;20024;-75
2023/08/25 07:13:51;;;;;;;12.13;10.82;;;;;;;30.90;100.00;100672.66;5114310;28;20023;-76
2023/08/25 07:16:17;;;;;;;12.52;10.70;;;;;;;30.46;100.00;100680.56;5114210;28;20023;-75
2023/08/25 07:18:42;;;;;;;12.45;11.15;;;;;;;30.91;100.00;100659.34;5114058;28;20458;-71
2023/08/25 07:21:08;;;;;;;15.07;10.95;;;;;;;30.70;100.00;100620.28;5114068;28;20073;-75
2023/08/25 07:23:34;;;;;;;14.45;11.10;;;;;;;31.41;100.00;100664.69;5114330;28;20019;-75
2023/08/25 07:25:59;;;;;;;12.40;10.27;;;;;;;30.90;100.00;100662.13;5096258;28;20470;-76
2023/08/25 07:28:24;;;;;;;14.43;10.15;;;;;;;31.51;100.00;100654.84;5095554;28;20027;-76
2023/08/25 07:30:51;;;;;;;13.43;10.20;;;;;;;31.53;100.00;100660.78;5113723;28;20035;-76
2023/08/25 07:33:17;;;;;;;17.00;10.02;;;;;;;31.11;100.00;100604.72;5095905;28;20051;-79
2023/08/25 07:35:42;;;;;;;12.23;10.68;;;;;;;30.91;100.00;100621.72;5113686;28;20038;-78
2023/08/25 07:38:10;;;;;;;15.93;10.82;;;;;;;31.95;100.00;100648.34;5113880;28;20038;-76
2023/08/25 07:40:36;;;;;;;11.77;10.40;;;;;;;31.35;100.00;100596.91;5113974;28;20031;-74
2023/08/25 07:43:02;;;;;;;13.18;10.20;;;;;;;31.91;100.00;100589.09;5113731;28;20034;-76
2023/08/25 07:45:29;;;;;;;12.82;10.15;;;;;;;31.86;100.00;100607.22;5113601;28;20063;-76
2023/08/25 07:48:01;;;;;;;13.65;11.30;;;;;;;32.29;100.00;100658.72;5108602;28;20526;-75
2023/08/25 07:50:27;;;;;;;12.60;11.32;;;;;;;32.04;100.00;100649.19;5091793;28;20023;-76
2023/08/25 07:52:53;;;;;;;11.48;10.35;;;;;;;31.94;100.00;100632.72;5093246;28;20483;-75
2023/08/25 07:55:19;;;;;;;12.43;10.52;;;;;;;31.87;100.00;100598.31;5108983;28;20024;-76
2023/08/25 07:57:46;;;;;;;11.57;10.38;;;;;;;32.48;100.00;100595.19;5092502;28;20593;-76
2023/08/25 08:00:15;;;;;;;15.90;10.38;;;;;;;32.99;100.00;100570.16;5092818;28;20078;-75
2023/08/25 08:02:50;;;;;;;11.73;10.52;;;;;;;32.92;100.00;100627.97;5092628;28;20035;-76
2023/08/25 08:05:17;;;;;;;12.38;10.52;;;;;;;32.15;100.00;100649.69;5092851;28;20186;-73
2023/08/25 08:07:44;;;;;;;11.93;10.73;;;;;;;32.15;100.00;100648.88;5093128;28;20028;-76
2023/08/25 08:10:10;;;;;;;12.15;10.95;;;;;;;32.41;100.00;100573.94;5093103;28;20493;-76
2023/08/25 08:12:36;;;;;;;13.48;10.40;;;;;;;32.96;100.00;100617.94;5092521;28;20063;-75
2023/08/25 08:15:01;;;;;;;12.75;10.60;;;;;;;32.36;100.00;100534.13;5092224;28;20105;-74
2023/08/25 08:17:28;;;;;;;11.60;10.35;;;;;;;33.57;100.00;100607.44;5092190;28;20028;-76
2023/08/25 08:19:53;;;;;;;12.93;10.48;;;;;;;33.10;100.00;100559.25;5092822;28;20035;-75
2023/08/25 08:22:19;;;;;;;17.30;10.57;;;;;;;32.88;100.00;100520.44;5092535;28;20032;-76
2023/08/25 08:24:48;;;;;;;14.13;10.98;;;;;;;33.41;100.00;100607.50;5092528;28;20071;-76
2023/08/25 08:27:18;;;;;;;14.55;10.60;;;;;;;32.88;100.00;100558.16;5091454;28;20078;-77
2023/08/25 08:29:46;;;;;;;11.32;9.93;;;;;;;33.84;100.00;100593.69;5092315;28;20032;-78
2023/08/25 08:32:13;;;;;;;14.98;10.55;;;;;;;32.81;100.00;100622.25;5091505;28;20036;-76
2023/08/25 08:34:38;;;;;;;12.48;10.50;;;;;;;32.68;100.00;100625.44;5092307;28;20043;-76
2023/08/25 08:37:05;;;;;;;11.73;9.88;;;;;;;33.02;100.00;100606.75;5092852;28;20410;-77
2023/08/25 08:39:32;;;;;;;11.85;10.55;;;;;;;32.04;100.00;100588.66;5092715;28;20032;-76
2023/08/25 08:41:59;;;;;;;12.00;10.80;;;;;;;33.04;100.00;100608.19;5092063;28;20023;-76
2023/08/25 08:44:26;;;;;;;11.50;10.30;;;;;;;33.83;100.00;100525.25;5107676;28;20034;-76
2023/08/25 08:46:53;;;;;;;12.63;10.75;;;;;;;33.67;100.00;100584.28;5111014;28;20077;-76
2023/08/25 08:49:22;;;;;;;12.45;10.77;;;;;;;33.97;100.00;100490.13;5112666;28;20038;-74
2023/08/25 08:51:49;;;;;;;11.95;10.75;;;;;;;34.22;100.00;100562.84;5112572;28;20049;-77
2023/08/25 08:54:15;;;;;;;14.95;10.88;;;;;;;33.88;100.00;100515.78;5112364;28;20034;-75
2023/08/25 08:56:41;;;;;;;15.25;10.13;;;;;;;33.91;100.00;100515.41;5112207;28;20495;-75
2023/08/25 08:59:06;;;;;;;11.85;10.70;;;;;;;33.28;100.00;100515.75;5111945;28;20059;-76
2023/08/25 09:01:33;;;;;;;12.63;10.35;;;;;;;34.58;100.00;100499.53;5111588;28;20031;-75
2023/08/25 09:04:02;;;;;;;12.32;11.05;;;;;;;34.16;100.00;100509.91;5112271;28;20084;-75
2023/08/25 09:06:35;;;;;;;13.20;10.52;;;;;;;34.69;100.00;100542.19;5112257;28;20023;-75
2023/08/25 09:09:04;;;;;;;11.90;10.57;;;;;;;34.75;100.00;100548.53;5111773;28;20070;-75
2023/08/25 09:11:31;;;;;;;14.75;10.75;;;;;;;34.68;100.00;100552.94;5092968;28;20516;-76
2023/08/25 09:13:58;;;;;;;11.38;10.27;;;;;;;34.48;100.00;100502.47;5112267;28;20019;-76
2023/08/25 09:16:25;;;;;;;11.93;10.63;;;;;;;34.35;100.00;100496.97;5110946;28;20028;-75
2023/08/25 09:18:52;;;;;;;12.38;10.57;;;;;;;34.41;100.00;100550.94;5110479;28;20185;-76
2023/08/25 09:21:20;;;;;;;11.07;9.95;;;;;;;34.98;100.00;100551.91;5112204;28;20070;-75
2023/08/25 09:23:53;;;;;;;12.57;10.75;;;;;;;33.83;100.00;100428.38;5112187;28;20047;-76
2023/08/25 09:26:19;;;;;;;11.57;10.43;;;;;;;34.77;100.00;100512.16;5112078;28;20035;-75
2023/08/25 09:28:45;;;;;;;11.48;9.63;;;;;;;34.09;100.00;100502.72;4758886;27;10000398;-74
2023/08/25 09:31:39;;;;;;;11.20;9.73;;;;;;;35.26;100.00;100528.22;5128218;28;20143;-73
2023/08/25 09:34:07;;;;;;;11.23;10.18;;;;;;;34.40;100.00;100496.44;5115938;28;20147;-73
2023/08/25 09:36:33;;;;;;;12.05;10.88;;;;;;;34.75;100.00;100538.78;5111188;28;20689;-78
2023/08/25 09:38:59;;;;;;;11.38;9.48;;;;;;;34.43;100.00;100547.09;5111527;28;20034;-74
2023/08/25 09:41:26;;;;;;;13.63;10.23;;;;;;;34.88;100.00;100538.94;5128888;28;20062;-74
2023/08/25 09:43:59;;;;;;;11.25;10.02;;;;;;;35.65;100.00;100505.59;5129476;28;20023;-75
2023/08/25 09:46:33;;;;;;;12.75;9.93;;;;;;;35.51;100.00;100501.19;5112353;28;20030;-74
2023/08/25 09:49:06;;;;;;;11.20;10.07;;;;;;;35.03;100.00;100533.66;5113533;28;20515;-73
2023/08/25 09:51:42;;;;;;;12.02;9.73;;;;;;;35.63;100.00;100507.59;5132282;28;20034;-76
2023/08/25 09:54:09;;;;;;;10.60;9.40;;;;;;;35.63;100.00;100482.97;5132714;28;20027;-76
2023/08/25 09:56:37;;;;;;;12.48;9.85;;;;;;;35.28;100.00;100452.09;5132667;28;20019;-77
2023/08/25 09:59:04;;;;;;;11.50;9.85;;;;;;;36.01;100.00;100483.44;5132926;28;20034;-75
2023/08/25 10:01:33;;;;;;;10.48;9.45;;;;;;;35.00;100.00;100438.00;5114626;28;20027;-77
2023/08/25 10:04:01;;;;;;;10.67;9.17;;;;;;;35.46;100.00;100473.63;5114390;28;20049;-75
2023/08/25 10:06:30;;;;;;;12.25;10.00;;;;;;;35.48;100.00;100483.03;5132655;28;20092;-76
2023/08/25 10:08:56;;;;;;;15.23;10.02;;;;;;;35.67;100.00;100466.50;5132625;28;20030;-78
2023/08/25 10:11:25;;;;;;;10.43;9.52;;;;;;;35.71;100.00;100453.69;5132484;28;20110;-78
2023/08/25 10:13:54;;;;;;;12.18;9.98;;;;;;;36.19;100.00;100436.84;5132798;28;20032;-73
2023/08/25 10:16:20;;;;;;;11.80;9.60;;;;;;;35.28;100.00;100410.56;5132861;28;20027;-77
2023/08/25 10:18:48;;;;;;;10.80;9.80;;;;;;;35.18;100.00;100354.53;5132847;28;20485;-77
2023/08/25 10:21:18;;;;;;;12.38;9.45;;;;;;;35.27;100.00;100459.22;5132271;27;20583;-78
2023/08/25 10:23:45;;;;;;;12.83;10.00;;;;;;;35.44;100.00;100399.69;5132810;27;20030;-75
2023/08/25 10:26:11;;;;;;;19.92;14.25;;;;;;;35.14;100.00;100395.59;5136318;27;20080;-77
2023/08/25 10:28:38;;;;;;;13.65;9.38;;;;;;;35.02;100.00;100473.84;5135475;27;20070;-80
2023/08/25 10:31:04;;;;;;;15.82;10.63;;;;;;;35.19;100.00;100401.16;5136643;27;20077;-77
2023/08/25 10:33:50;;;;;;;15.65;12.43;;;;;;;35.68;100.00;100439.00;5114876;28;20016;-77
2023/08/25 10:36:18;;;;;;;13.13;8.57;;;;;;;35.38;100.00;100336.16;5097578;28;20031;-75
2023/08/25 10:39:06;;;;;;;12.25;9.27;;;;;;;35.68;100.00;100425.75;5115645;28;20028;-76
2023/08/25 10:41:39;;;;;;;10.02;9.02;;;;;;;36.37;100.00;100402.69;5115749;28;20103;-77
2023/08/25 10:44:08;;;;;;;10.20;9.20;;;;;;;36.03;100.00;100347.16;5115015;28;20056;-77
2023/08/25 10:46:34;;;;;;;15.85;10.50;;;;;;;35.85;100.00;100425.47;5114844;28;20036;-78
2023/08/25 10:49:06;;;;;;;10.48;9.30;;;;;;;35.74;100.00;100364.09;5115336;28;20104;-76
2023/08/25 10:51:33;;;;;;;12.23;9.20;;;;;;;35.99;100.00;100353.84;5115504;28;20077;-78
2023/08/25 10:53:59;;;;;;;12.70;9.18;;;;;;;35.81;100.00;100405.69;5115440;28;20027;-76
2023/08/25 10:56:25;;;;;;;10.25;9.13;;;;;;;36.86;100.00;100360.03;5115539;28;20173;-78
2023/08/25 10:59:10;;;;;;;10.95;9.68;;;;;;;36.04;100.00;100332.06;5114821;28;20034;-76
2023/08/25 11:01:38;;;;;;;12.95;9.18;;;;;;;36.38;100.00;100384.97;5114824;28;20109;-76
2023/08/25 11:04:11;;;;;;;10.00;9.07;;;;;;;35.21;100.00;100371.84;5114864;28;20055;-76